createdAt,value
2018-09-29T00:00:22.785Z,1024.32
2018-09-29T00:00:48.963Z,1024.36
2018-09-29T00:01:15.121Z,1024.35
2018-09-29T00:01:41.273Z,1024.35
2018-09-29T00:02:07.404Z,1024.34
2018-09-29T00:02:33.535Z,1024.36
2018-09-29T00:02:59.662Z,1024.37
2018-09-29T00:03:25.807Z,1024.34
2018-09-29T00:03:51.943Z,1024.4
2018-09-29T00:04:18.097Z,1024.4
2018-09-29T00:04:44.238Z,1024.37
2018-09-29T00:05:10.414Z,1024.38
2018-09-29T00:05:36.571Z,1024.38
2018-09-29T00:06:02.707Z,1024.39
2018-09-29T00:06:28.867Z,1024.38
2018-09-29T00:06:55.002Z,1024.42
2018-09-29T00:07:21.130Z,1024.4
2018-09-29T00:07:47.269Z,1024.36
2018-09-29T00:08:13.397Z,1024.4
2018-09-29T00:08:39.532Z,1024.4
2018-09-29T00:09:05.663Z,1024.4
2018-09-29T00:09:31.795Z,1024.39
2018-09-29T00:09:57.944Z,1024.39
2018-09-29T00:10:24.096Z,1024.42
2018-09-29T00:10:50.225Z,1024.38
2018-09-29T00:11:16.367Z,1024.38
2018-09-29T00:11:42.550Z,1024.42
2018-09-29T00:12:08.678Z,1024.36
2018-09-29T00:12:34.830Z,1024.39
2018-09-29T00:13:00.958Z,1024.41
2018-09-29T00:13:27.116Z,1024.42
2018-09-29T00:13:53.245Z,1024.42
2018-09-29T00:14:19.380Z,1024.38
2018-09-29T00:14:45.517Z,1024.39
2018-09-29T00:15:11.647Z,1024.35
2018-09-29T00:15:37.777Z,1024.37
2018-09-29T00:16:03.910Z,1024.37
2018-09-29T00:16:30.110Z,1024.4
2018-09-29T00:16:56.170Z,1024.36
2018-09-29T00:17:22.298Z,1024.38
2018-09-29T00:17:48.437Z,1024.38
2018-09-29T00:18:14.610Z,1024.38
2018-09-29T00:18:40.737Z,1024.36
2018-09-29T00:19:06.868Z,1024.36
2018-09-29T00:19:33.018Z,1024.39
2018-09-29T00:19:59.148Z,1024.38
2018-09-29T00:20:25.287Z,1024.35
2018-09-29T00:20:51.420Z,1024.38
2018-09-29T00:21:17.549Z,1024.39
2018-09-29T00:21:43.680Z,1024.37
2018-09-29T00:22:09.839Z,1024.38
2018-09-29T00:22:35.966Z,1024.36
2018-09-29T00:23:02.105Z,1024.36
2018-09-29T00:23:28.262Z,1024.4
2018-09-29T00:23:54.391Z,1024.38
2018-09-29T00:24:20.547Z,1024.38
2018-09-29T00:24:46.680Z,1024.36
2018-09-29T00:25:12.845Z,1024.37
2018-09-29T00:25:38.982Z,1024.34
2018-09-29T00:26:05.115Z,1024.36
2018-09-29T00:26:31.249Z,1024.35
2018-09-29T00:26:57.405Z,1024.36
2018-09-29T00:27:23.562Z,1024.34
2018-09-29T00:27:49.713Z,1024.35
2018-09-29T00:28:15.848Z,1024.36
2018-09-29T00:28:41.983Z,1024.35
2018-09-29T00:29:08.113Z,1024.35
2018-09-29T00:29:34.274Z,1024.36
2018-09-29T00:30:00.409Z,1024.35
2018-09-29T00:30:26.533Z,1024.37
2018-09-29T00:30:52.665Z,1024.35
2018-09-29T00:31:18.823Z,1024.33
2018-09-29T00:31:44.973Z,1024.35
2018-09-29T00:32:11.106Z,1024.37
2018-09-29T00:32:37.227Z,1024.36
2018-09-29T00:33:03.366Z,1024.36
2018-09-29T00:33:29.499Z,1024.36
2018-09-29T00:33:55.632Z,1024.37
2018-09-29T00:34:21.757Z,1024.37
2018-09-29T00:34:47.893Z,1024.33
2018-09-29T00:35:14.023Z,1024.36
2018-09-29T00:35:40.155Z,1024.36
2018-09-29T00:36:06.310Z,1024.34
2018-09-29T00:36:32.435Z,1024.34
2018-09-29T00:36:58.575Z,1024.36
2018-09-29T00:37:24.729Z,1024.34
2018-09-29T00:37:50.865Z,1024.34
2018-09-29T00:38:16.990Z,1024.36
2018-09-29T00:38:43.118Z,1024.34
2018-09-29T00:39:09.274Z,1024.37
2018-09-29T00:39:35.401Z,1024.33
2018-09-29T00:40:01.561Z,1024.33
2018-09-29T00:40:27.717Z,1024.34
2018-09-29T00:40:53.852Z,1024.35
2018-09-29T00:41:20.008Z,1024.35
2018-09-29T00:41:46.134Z,1024.36
2018-09-29T00:42:12.268Z,1024.34
2018-09-29T00:42:38.400Z,1024.34
2018-09-29T00:43:04.555Z,1024.35
2018-09-29T00:43:30.689Z,1024.36
2018-09-29T00:43:56.828Z,1024.35
2018-09-29T00:44:22.957Z,1024.36
2018-09-29T00:44:49.084Z,1024.35
2018-09-29T00:45:15.216Z,1024.41
2018-09-29T00:45:41.349Z,1024.33
2018-09-29T00:46:07.484Z,1024.33
2018-09-29T00:46:33.612Z,1024.33
2018-09-29T00:46:59.743Z,1024.3
2018-09-29T00:47:25.875Z,1024.34
2018-09-29T00:47:52.003Z,1024.33
2018-09-29T00:48:18.133Z,1024.32
2018-09-29T00:48:44.268Z,1024.33
2018-09-29T00:49:10.400Z,1024.33
2018-09-29T00:49:36.523Z,1024.32
2018-09-29T00:50:02.655Z,1024.35
2018-09-29T00:50:28.810Z,1024.36
2018-09-29T00:50:54.942Z,1024.35
2018-09-29T00:51:21.078Z,1024.33
2018-09-29T00:51:47.202Z,1024.35
2018-09-29T00:52:13.332Z,1024.32
2018-09-29T00:52:39.475Z,1024.34
2018-09-29T00:53:05.605Z,1024.31
2018-09-29T00:53:31.761Z,1024.34
2018-09-29T00:53:57.897Z,1024.38
2018-09-29T00:54:24.054Z,1024.36
2018-09-29T00:54:50.188Z,1024.4
2018-09-29T00:55:16.320Z,1024.39
2018-09-29T00:55:42.447Z,1024.39
2018-09-29T00:56:08.577Z,1024.42
2018-09-29T00:56:34.710Z,1024.4
2018-09-29T00:57:00.840Z,1024.4
2018-09-29T00:57:27.000Z,1024.42
2018-09-29T00:57:53.147Z,1024.38
2018-09-29T00:58:19.276Z,1024.38
2018-09-29T00:58:45.462Z,1024.37
2018-09-29T00:59:11.607Z,1024.42
2018-09-29T00:59:37.731Z,1024.39
2018-09-29T01:00:03.860Z,1024.38
2018-09-29T01:00:29.995Z,1024.4
2018-09-29T01:00:56.124Z,1024.4
2018-09-29T01:01:22.259Z,1024.44
2018-09-29T01:01:48.396Z,1024.4
2018-09-29T01:02:14.525Z,1024.43
2018-09-29T01:02:40.649Z,1024.38
2018-09-29T01:03:06.815Z,1024.39
2018-09-29T01:03:32.943Z,1024.35
2018-09-29T01:03:59.122Z,1024.34
2018-09-29T01:04:25.252Z,1024.29
2018-09-29T01:04:51.403Z,1024.34
2018-09-29T01:05:17.561Z,1024.33
2018-09-29T01:05:43.716Z,1024.34
2018-09-29T01:06:09.847Z,1024.33
2018-09-29T01:06:36.003Z,1024.31
2018-09-29T01:07:02.133Z,1024.35
2018-09-29T01:07:28.261Z,1024.34
2018-09-29T01:07:54.389Z,1024.32
2018-09-29T01:08:20.524Z,1024.3
2018-09-29T01:08:46.655Z,1024.31
2018-09-29T01:09:12.804Z,1024.32
2018-09-29T01:09:38.939Z,1024.32
2018-09-29T01:10:05.068Z,1024.28
2018-09-29T01:10:31.199Z,1024.3
2018-09-29T01:10:57.329Z,1024.32
2018-09-29T01:11:23.476Z,1024.31
2018-09-29T01:11:49.609Z,1024.33
2018-09-29T01:12:15.773Z,1024.31
2018-09-29T01:12:41.923Z,1024.34
2018-09-29T01:13:08.086Z,1024.33
2018-09-29T01:13:34.217Z,1024.29
2018-09-29T01:14:00.345Z,1024.27
2018-09-29T01:14:26.482Z,1024.3
2018-09-29T01:14:52.620Z,1024.34
2018-09-29T01:15:18.742Z,1024.31
2018-09-29T01:15:44.897Z,1024.34
2018-09-29T01:16:11.030Z,1024.31
2018-09-29T01:16:37.169Z,1024.3
2018-09-29T01:17:03.325Z,1024.32
2018-09-29T01:17:29.484Z,1024.33
2018-09-29T01:17:55.611Z,1024.35
2018-09-29T01:18:21.741Z,1024.33
2018-09-29T01:18:47.882Z,1024.32
2018-09-29T01:19:14.003Z,1024.32
2018-09-29T01:19:40.137Z,1024.28
2018-09-29T01:20:06.295Z,1024.36
2018-09-29T01:20:32.424Z,1024.37
2018-09-29T01:20:58.555Z,1024.33
2018-09-29T01:21:24.694Z,1024.34
2018-09-29T01:21:50.854Z,1024.33
2018-09-29T01:22:16.985Z,1024.34
2018-09-29T01:22:43.144Z,1024.35
2018-09-29T01:23:09.274Z,1024.35
2018-09-29T01:23:35.418Z,1024.36
2018-09-29T01:24:01.599Z,1024.33
2018-09-29T01:24:27.735Z,1024.38
2018-09-29T01:24:53.862Z,1024.37
2018-09-29T01:25:19.990Z,1024.38
2018-09-29T01:25:46.126Z,1024.4
2018-09-29T01:26:12.258Z,1024.43
2018-09-29T01:26:38.390Z,1024.44
2018-09-29T01:27:04.522Z,1024.42
2018-09-29T01:27:30.657Z,1024.43
2018-09-29T01:27:56.784Z,1024.44
2018-09-29T01:28:22.924Z,1024.46
2018-09-29T01:28:49.080Z,1024.44
2018-09-29T01:29:15.290Z,1024.42
2018-09-29T01:29:41.392Z,1024.44
2018-09-29T01:30:07.558Z,1024.43
2018-09-29T01:30:33.692Z,1024.39
2018-09-29T01:30:59.821Z,1024.44
2018-09-29T01:31:25.975Z,1024.45
2018-09-29T01:31:52.114Z,1024.47
2018-09-29T01:32:18.264Z,1024.43
2018-09-29T01:32:44.400Z,1024.45
2018-09-29T01:33:10.557Z,1024.42
2018-09-29T01:33:36.728Z,1024.42
2018-09-29T01:34:02.887Z,1024.42
2018-09-29T01:34:29.056Z,1024.42
2018-09-29T01:34:55.227Z,1024.41
2018-09-29T01:35:21.373Z,1024.38
2018-09-29T01:35:47.514Z,1024.43
2018-09-29T01:36:13.741Z,1024.36
2018-09-29T01:36:40.034Z,1024.36
2018-09-29T01:37:06.188Z,1024.4
2018-09-29T01:37:32.401Z,1024.37
2018-09-29T01:37:58.540Z,1024.38
2018-09-29T01:38:24.706Z,1024.41
2018-09-29T01:38:50.874Z,1024.4
2018-09-29T01:39:17.070Z,1024.4
2018-09-29T01:39:43.228Z,1024.41
2018-09-29T01:40:09.396Z,1024.39
2018-09-29T01:40:35.558Z,1024.38
2018-09-29T01:41:01.720Z,1024.4
2018-09-29T01:41:27.975Z,1024.37
2018-09-29T01:41:54.156Z,1024.36
2018-09-29T01:42:20.287Z,1024.4
2018-09-29T01:42:46.456Z,1024.35
2018-09-29T01:43:12.636Z,1024.37
2018-09-29T01:43:38.774Z,1024.37
2018-09-29T01:44:04.978Z,1024.35
2018-09-29T01:44:31.162Z,1024.33
2018-09-29T01:44:57.320Z,1024.34
2018-09-29T01:45:23.497Z,1024.36
2018-09-29T01:45:49.626Z,1024.36
2018-09-29T01:46:15.937Z,1024.35
2018-09-29T01:46:42.074Z,1024.38
2018-09-29T01:47:08.320Z,1024.39
2018-09-29T01:47:34.497Z,1024.38
2018-09-29T01:48:00.589Z,1024.36
2018-09-29T01:48:27.144Z,1024.38
2018-09-29T01:48:53.293Z,1024.41
2018-09-29T01:49:19.440Z,1024.42
2018-09-29T01:49:45.589Z,1024.41
2018-09-29T01:50:11.744Z,1024.4
2018-09-29T01:50:37.954Z,1024.4
2018-09-29T01:51:04.085Z,1024.42
2018-09-29T01:51:30.246Z,1024.38
2018-09-29T01:51:56.391Z,1024.38
2018-09-29T01:52:22.531Z,1024.38
2018-09-29T01:52:48.700Z,1024.4
2018-09-29T01:53:14.869Z,1024.36
2018-09-29T01:53:41.033Z,1024.38
2018-09-29T01:54:07.243Z,1024.37
2018-09-29T01:54:33.416Z,1024.4
2018-09-29T01:54:59.835Z,1024.36
2018-09-29T01:55:25.972Z,1024.38
2018-09-29T01:55:52.112Z,1024.39
2018-09-29T01:56:18.277Z,1024.38
2018-09-29T01:56:44.477Z,1024.4
2018-09-29T01:57:10.651Z,1024.38
2018-09-29T01:57:36.788Z,1024.4
2018-09-29T01:58:02.948Z,1024.4
2018-09-29T01:58:29.169Z,1024.38
2018-09-29T01:58:55.256Z,1024.42
2018-09-29T01:59:21.436Z,1024.4
2018-09-29T01:59:47.563Z,1024.42
2018-09-29T02:00:13.715Z,1024.43
2018-09-29T02:00:39.852Z,1024.39
2018-09-29T02:01:06.024Z,1024.42
2018-09-29T02:01:32.188Z,1024.4
2018-09-29T02:01:58.364Z,1024.4
2018-09-29T02:02:24.540Z,1024.43
2018-09-29T02:02:50.727Z,1024.42
2018-09-29T02:03:16.924Z,1024.42
2018-09-29T02:03:43.104Z,1024.38
2018-09-29T02:04:09.241Z,1024.37
2018-09-29T02:04:35.365Z,1024.38
2018-09-29T02:05:01.533Z,1024.37
2018-09-29T02:05:27.720Z,1024.33
2018-09-29T02:05:53.888Z,1024.37
2018-09-29T02:06:20.011Z,1024.36
2018-09-29T02:06:46.197Z,1024.36
2018-09-29T02:07:12.303Z,1024.36
2018-09-29T02:07:38.439Z,1024.35
2018-09-29T02:08:04.636Z,1024.37
2018-09-29T02:08:30.737Z,1024.41
2018-09-29T02:08:56.886Z,1024.41
2018-09-29T02:09:23.093Z,1024.44
2018-09-29T02:09:49.246Z,1024.41
2018-09-29T02:10:15.420Z,1024.43
2018-09-29T02:10:41.648Z,1024.44
2018-09-29T02:11:07.776Z,1024.43
2018-09-29T02:11:33.912Z,1024.44
2018-09-29T02:12:00.087Z,1024.39
2018-09-29T02:12:26.212Z,1024.4
2018-09-29T02:12:52.351Z,1024.35
2018-09-29T02:13:18.529Z,1024.35
2018-09-29T02:13:44.651Z,1024.35
2018-09-29T02:14:10.795Z,1024.36
2018-09-29T02:14:37.131Z,1024.36
2018-09-29T02:15:03.259Z,1024.34
2018-09-29T02:15:29.391Z,1024.35
2018-09-29T02:15:55.529Z,1024.37
2018-09-29T02:16:21.688Z,1024.34
2018-09-29T02:16:47.822Z,1024.39
2018-09-29T02:17:13.961Z,1024.39
2018-09-29T02:17:40.112Z,1024.4
2018-09-29T02:18:06.238Z,1024.38
2018-09-29T02:18:32.376Z,1024.34
2018-09-29T02:18:58.504Z,1024.36
2018-09-29T02:19:24.660Z,1024.36
2018-09-29T02:19:50.786Z,1024.34
2018-09-29T02:20:16.938Z,1024.36
2018-09-29T02:20:43.070Z,1024.35
2018-09-29T02:21:09.201Z,1024.38
2018-09-29T02:21:35.335Z,1024.35
2018-09-29T02:22:01.493Z,1024.37
2018-09-29T02:22:27.621Z,1024.35
2018-09-29T02:22:53.753Z,1024.35
2018-09-29T02:23:19.882Z,1024.37
2018-09-29T02:23:46.037Z,1024.35
2018-09-29T02:24:12.163Z,1024.38
2018-09-29T02:24:38.296Z,1024.37
2018-09-29T02:25:04.434Z,1024.35
2018-09-29T02:25:30.579Z,1024.36
2018-09-29T02:25:56.736Z,1024.37
2018-09-29T02:26:22.915Z,1024.3
2018-09-29T02:26:49.048Z,1024.33
2018-09-29T02:27:15.186Z,1024.33
2018-09-29T02:27:41.318Z,1024.33
2018-09-29T02:28:07.443Z,1024.33
2018-09-29T02:28:33.607Z,1024.32
2018-09-29T02:28:59.804Z,1024.34
2018-09-29T02:29:25.923Z,1024.36
2018-09-29T02:29:52.060Z,1024.33
2018-09-29T02:30:18.210Z,1024.35
2018-09-29T02:30:44.428Z,1024.34
2018-09-29T02:31:10.585Z,1024.32
2018-09-29T02:31:36.748Z,1024.3
2018-09-29T02:32:02.951Z,1024.32
2018-09-29T02:32:29.113Z,1024.32
2018-09-29T02:32:55.292Z,1024.34
2018-09-29T02:33:21.466Z,1024.34
2018-09-29T02:33:47.602Z,1024.36
2018-09-29T02:34:13.734Z,1024.36
2018-09-29T02:34:39.869Z,1024.36
2018-09-29T02:35:05.990Z,1024.31
2018-09-29T02:35:32.177Z,1024.37
2018-09-29T02:35:58.304Z,1024.36
2018-09-29T02:36:24.432Z,1024.38
2018-09-29T02:36:50.583Z,1024.4
2018-09-29T02:37:16.719Z,1024.38
2018-09-29T02:37:42.853Z,1024.34
2018-09-29T02:38:09.000Z,1024.33
2018-09-29T02:38:35.158Z,1024.32
2018-09-29T02:39:01.295Z,1024.34
2018-09-29T02:39:27.444Z,1024.33
2018-09-29T02:39:53.580Z,1024.31
2018-09-29T02:40:19.708Z,1024.35
2018-09-29T02:40:45.889Z,1024.34
2018-09-29T02:41:12.068Z,1024.31
2018-09-29T02:41:38.229Z,1024.29
2018-09-29T02:42:04.405Z,1024.29
2018-09-29T02:42:30.561Z,1024.32
2018-09-29T02:42:56.721Z,1024.29
2018-09-29T02:43:22.847Z,1024.3
2018-09-29T02:43:48.998Z,1024.32
2018-09-29T02:44:15.133Z,1024.28
2018-09-29T02:44:41.263Z,1024.28
2018-09-29T02:45:07.415Z,1024.27
2018-09-29T02:45:33.548Z,1024.29
2018-09-29T02:45:59.700Z,1024.31
2018-09-29T02:46:25.850Z,1024.28
2018-09-29T02:46:51.984Z,1024.3
2018-09-29T02:47:18.119Z,1024.26
2018-09-29T02:47:44.274Z,1024.27
2018-09-29T02:48:10.406Z,1024.3
2018-09-29T02:48:36.589Z,1024.27
2018-09-29T02:49:02.741Z,1024.31
2018-09-29T02:49:28.881Z,1024.31
2018-09-29T02:49:55.021Z,1024.3
2018-09-29T02:50:21.150Z,1024.31
2018-09-29T02:50:47.308Z,1024.3
2018-09-29T02:51:13.439Z,1024.3
2018-09-29T02:51:39.583Z,1024.27
2018-09-29T02:52:05.750Z,1024.26
2018-09-29T02:52:31.878Z,1024.25
2018-09-29T02:52:58.059Z,1024.25
2018-09-29T02:53:24.187Z,1024.3
2018-09-29T02:53:50.340Z,1024.25
2018-09-29T02:54:16.518Z,1024.28
2018-09-29T02:54:42.653Z,1024.29
2018-09-29T02:55:08.808Z,1024.26
2018-09-29T02:55:34.940Z,1024.27
2018-09-29T02:56:01.110Z,1024.27
2018-09-29T02:56:27.242Z,1024.26
2018-09-29T02:56:53.378Z,1024.28
2018-09-29T02:57:19.503Z,1024.3
2018-09-29T02:57:45.628Z,1024.3
2018-09-29T02:58:11.821Z,1024.29
2018-09-29T02:58:37.955Z,1024.27
2018-09-29T02:59:04.091Z,1024.27
2018-09-29T02:59:30.272Z,1024.29
2018-09-29T02:59:56.409Z,1024.25
2018-09-29T03:00:22.543Z,1024.24
2018-09-29T03:00:48.680Z,1024.25
2018-09-29T03:01:14.838Z,1024.22
2018-09-29T03:01:40.988Z,1024.25
2018-09-29T03:02:07.120Z,1024.27
2018-09-29T03:02:33.274Z,1024.27
2018-09-29T03:02:59.405Z,1024.26
2018-09-29T03:03:25.529Z,1024.25
2018-09-29T03:03:51.664Z,1024.26
2018-09-29T03:04:17.815Z,1024.28
2018-09-29T03:04:43.987Z,1024.24
2018-09-29T03:05:10.146Z,1024.25
2018-09-29T03:05:36.304Z,1024.24
2018-09-29T03:06:02.466Z,1024.26
2018-09-29T03:06:28.601Z,1024.24
2018-09-29T03:06:54.797Z,1024.21
2018-09-29T03:07:21.006Z,1024.27
2018-09-29T03:07:47.092Z,1024.21
2018-09-29T03:08:13.251Z,1024.25
2018-09-29T03:08:39.404Z,1024.24
2018-09-29T03:09:05.540Z,1024.23
2018-09-29T03:09:31.693Z,1024.24
2018-09-29T03:09:57.847Z,1024.23
2018-09-29T03:10:23.979Z,1024.24
2018-09-29T03:10:50.129Z,1024.24
2018-09-29T03:11:16.266Z,1024.21
2018-09-29T03:11:42.399Z,1024.19
2018-09-29T03:12:08.547Z,1024.21
2018-09-29T03:12:34.704Z,1024.21
2018-09-29T03:13:00.836Z,1024.19
2018-09-29T03:13:27.017Z,1024.21
2018-09-29T03:13:53.152Z,1024.19
2018-09-29T03:14:19.284Z,1024.18
2018-09-29T03:14:45.416Z,1024.18
2018-09-29T03:15:11.570Z,1024.19
2018-09-29T03:15:37.736Z,1024.2
2018-09-29T03:16:03.886Z,1024.24
2018-09-29T03:16:30.019Z,1024.22
2018-09-29T03:16:56.176Z,1024.19
2018-09-29T03:17:22.331Z,1024.19
2018-09-29T03:17:48.465Z,1024.22
2018-09-29T03:18:14.624Z,1024.24
2018-09-29T03:18:40.799Z,1024.22
2018-09-29T03:19:06.999Z,1024.21
2018-09-29T03:19:33.101Z,1024.24
2018-09-29T03:19:59.243Z,1024.25
2018-09-29T03:20:25.423Z,1024.28
2018-09-29T03:20:51.579Z,1024.23
2018-09-29T03:21:17.731Z,1024.23
2018-09-29T03:21:43.884Z,1024.24
2018-09-29T03:22:10.032Z,1024.21
2018-09-29T03:22:36.211Z,1024.24
2018-09-29T03:23:02.381Z,1024.23
2018-09-29T03:23:28.537Z,1024.22
2018-09-29T03:23:54.676Z,1024.24
2018-09-29T03:24:20.803Z,1024.23
2018-09-29T03:24:46.961Z,1024.22
2018-09-29T03:25:13.093Z,1024.23
2018-09-29T03:25:39.253Z,1024.2
2018-09-29T03:26:05.384Z,1024.19
2018-09-29T03:26:31.563Z,1024.2
2018-09-29T03:26:57.715Z,1024.21
2018-09-29T03:27:23.849Z,1024.22
2018-09-29T03:27:50.004Z,1024.21
2018-09-29T03:28:16.179Z,1024.21
2018-09-29T03:28:42.321Z,1024.2
2018-09-29T03:29:08.478Z,1024.23
2018-09-29T03:29:34.634Z,1024.21
2018-09-29T03:30:00.838Z,1024.2
2018-09-29T03:30:27.044Z,1024.19
2018-09-29T03:30:53.181Z,1024.18
2018-09-29T03:31:19.409Z,1024.18
2018-09-29T03:31:45.689Z,1024.18
2018-09-29T03:32:11.634Z,1024.15
2018-09-29T03:32:37.792Z,1024.17
2018-09-29T03:33:03.943Z,1024.14
2018-09-29T03:33:30.091Z,1024.14
2018-09-29T03:33:56.275Z,1024.13
2018-09-29T03:34:22.414Z,1024.1
2018-09-29T03:34:48.551Z,1024.16
2018-09-29T03:35:14.699Z,1024.15
2018-09-29T03:35:40.857Z,1024.11
2018-09-29T03:36:07.016Z,1024.13
2018-09-29T03:36:33.163Z,1024.13
2018-09-29T03:36:59.297Z,1024.13
2018-09-29T03:37:25.425Z,1024.14
2018-09-29T03:37:51.550Z,1024.16
2018-09-29T03:38:17.732Z,1024.13
2018-09-29T03:38:43.864Z,1024.16
2018-09-29T03:39:10.042Z,1024.16
2018-09-29T03:39:36.192Z,1024.14
2018-09-29T03:40:02.331Z,1024.16
2018-09-29T03:40:28.465Z,1024.18
2018-09-29T03:40:54.597Z,1024.18
2018-09-29T03:41:20.761Z,1024.13
2018-09-29T03:41:46.892Z,1024.16
2018-09-29T03:42:13.040Z,1024.15
2018-09-29T03:42:39.171Z,1024.16
2018-09-29T03:43:05.312Z,1024.21
2018-09-29T03:43:31.439Z,1024.22
2018-09-29T03:43:57.594Z,1024.23
2018-09-29T03:44:23.785Z,1024.22
2018-09-29T03:44:49.957Z,1024.24
2018-09-29T03:45:16.132Z,1024.22
2018-09-29T03:45:42.261Z,1024.2
2018-09-29T03:46:08.416Z,1024.25
2018-09-29T03:46:34.584Z,1024.22
2018-09-29T03:47:00.731Z,1024.2
2018-09-29T03:47:26.910Z,1024.21
2018-09-29T03:47:53.090Z,1024.16
2018-09-29T03:48:19.227Z,1024.15
2018-09-29T03:48:45.359Z,1024.19
2018-09-29T03:49:11.492Z,1024.16
2018-09-29T03:49:37.619Z,1024.19
2018-09-29T03:50:03.801Z,1024.14
2018-09-29T03:50:29.934Z,1024.1
2018-09-29T03:50:56.069Z,1024.16
2018-09-29T03:51:22.258Z,1024.13
2018-09-29T03:51:48.393Z,1024.13
2018-09-29T03:52:14.545Z,1024.14
2018-09-29T03:52:40.669Z,1024.17
2018-09-29T03:53:06.829Z,1024.15
2018-09-29T03:53:33.049Z,1024.15
2018-09-29T03:53:59.162Z,1024.14
2018-09-29T03:54:25.340Z,1024.12
2018-09-29T03:54:51.501Z,1024.18
2018-09-29T03:55:17.637Z,1024.14
2018-09-29T03:55:43.789Z,1024.15
2018-09-29T03:56:09.916Z,1024.14
2018-09-29T03:56:36.084Z,1024.12
2018-09-29T03:57:02.231Z,1024.16
2018-09-29T03:57:28.383Z,1024.12
2018-09-29T03:57:54.566Z,1024.13
2018-09-29T03:58:20.717Z,1024.15
2018-09-29T03:58:46.879Z,1024.14
2018-09-29T03:59:13.004Z,1024.14
2018-09-29T03:59:39.153Z,1024.11
2018-09-29T04:00:05.295Z,1024.11
2018-09-29T04:00:31.443Z,1024.12
2018-09-29T04:00:57.598Z,1024.13
2018-09-29T04:01:23.753Z,1024.13
2018-09-29T04:01:49.885Z,1024.13
2018-09-29T04:02:16.082Z,1024.1
2018-09-29T04:02:42.242Z,1024.12
2018-09-29T04:03:08.399Z,1024.11
2018-09-29T04:03:34.538Z,1024.08
2018-09-29T04:04:00.666Z,1024.14
2018-09-29T04:04:26.820Z,1024.12
2018-09-29T04:04:53.052Z,1024.11
2018-09-29T04:05:19.207Z,1024.15
2018-09-29T04:05:45.335Z,1024.13
2018-09-29T04:06:11.509Z,1024.13
2018-09-29T04:06:37.639Z,1024.11
2018-09-29T04:07:03.770Z,1024.13
2018-09-29T04:07:29.897Z,1024.13
2018-09-29T04:07:56.086Z,1024.17
2018-09-29T04:08:22.219Z,1024.14
2018-09-29T04:08:48.352Z,1024.18
2018-09-29T04:09:14.505Z,1024.17
2018-09-29T04:09:40.660Z,1024.11
2018-09-29T04:10:06.794Z,1024.14
2018-09-29T04:10:32.923Z,1024.12
2018-09-29T04:10:59.076Z,1024.13
2018-09-29T04:11:25.209Z,1024.15
2018-09-29T04:11:51.336Z,1024.14
2018-09-29T04:12:17.468Z,1024.14
2018-09-29T04:12:43.605Z,1024.14
2018-09-29T04:13:09.790Z,1024.14
2018-09-29T04:13:35.939Z,1024.19
2018-09-29T04:14:02.200Z,1024.16
2018-09-29T04:14:28.210Z,1024.18
2018-09-29T04:14:54.370Z,1024.21
2018-09-29T04:15:20.504Z,1024.2
2018-09-29T04:15:46.660Z,1024.19
2018-09-29T04:16:12.860Z,1024.19
2018-09-29T04:16:39.018Z,1024.18
2018-09-29T04:17:05.178Z,1024.21
2018-09-29T04:17:31.357Z,1024.21
2018-09-29T04:17:57.491Z,1024.2
2018-09-29T04:18:23.623Z,1024.15
2018-09-29T04:18:49.782Z,1024.18
2018-09-29T04:19:15.954Z,1024.19
2018-09-29T04:19:42.091Z,1024.23
2018-09-29T04:20:08.228Z,1024.24
2018-09-29T04:20:34.385Z,1024.24
2018-09-29T04:21:00.516Z,1024.23
2018-09-29T04:21:26.652Z,1024.25
2018-09-29T04:21:52.784Z,1024.29
2018-09-29T04:22:18.913Z,1024.26
2018-09-29T04:22:45.049Z,1024.27
2018-09-29T04:23:11.180Z,1024.26
2018-09-29T04:23:37.317Z,1024.27
2018-09-29T04:24:03.442Z,1024.26
2018-09-29T04:24:29.601Z,1024.27
2018-09-29T04:24:55.735Z,1024.28
2018-09-29T04:25:21.865Z,1024.28
2018-09-29T04:25:47.996Z,1024.25
2018-09-29T04:26:14.154Z,1024.26
2018-09-29T04:26:40.300Z,1024.25
2018-09-29T04:27:06.454Z,1024.26
2018-09-29T04:27:32.592Z,1024.25
2018-09-29T04:27:58.725Z,1024.26
2018-09-29T04:28:24.882Z,1024.22
2018-09-29T04:28:51.015Z,1024.23
2018-09-29T04:29:17.150Z,1024.25
2018-09-29T04:29:43.308Z,1024.26
2018-09-29T04:30:09.439Z,1024.22
2018-09-29T04:30:35.561Z,1024.27
2018-09-29T04:31:01.689Z,1024.25
2018-09-29T04:31:27.846Z,1024.24
2018-09-29T04:31:53.971Z,1024.25
2018-09-29T04:32:20.101Z,1024.27
2018-09-29T04:32:46.242Z,1024.27
2018-09-29T04:33:12.364Z,1024.28
2018-09-29T04:33:38.495Z,1024.29
2018-09-29T04:34:04.650Z,1024.31
2018-09-29T04:34:30.784Z,1024.27
2018-09-29T04:34:56.967Z,1024.31
2018-09-29T04:35:23.095Z,1024.25
2018-09-29T04:35:49.231Z,1024.31
2018-09-29T04:36:15.371Z,1024.27
2018-09-29T04:36:41.501Z,1024.29
2018-09-29T04:37:07.651Z,1024.29
2018-09-29T04:37:33.819Z,1024.29
2018-09-29T04:37:59.947Z,1024.27
2018-09-29T04:38:26.127Z,1024.26
2018-09-29T04:38:52.263Z,1024.29
2018-09-29T04:39:18.386Z,1024.28
2018-09-29T04:39:44.523Z,1024.25
2018-09-29T04:40:10.655Z,1024.26
2018-09-29T04:40:36.792Z,1024.29
2018-09-29T04:41:02.961Z,1024.28
2018-09-29T04:41:29.087Z,1024.29
2018-09-29T04:41:55.217Z,1024.22
2018-09-29T04:42:21.349Z,1024.27
2018-09-29T04:42:47.483Z,1024.28
2018-09-29T04:43:13.685Z,1024.31
2018-09-29T04:43:39.749Z,1024.31
2018-09-29T04:44:05.876Z,1024.29
2018-09-29T04:44:32.041Z,1024.33
2018-09-29T04:44:58.177Z,1024.34
2018-09-29T04:45:24.332Z,1024.32
2018-09-29T04:45:50.463Z,1024.32
2018-09-29T04:46:16.598Z,1024.35
2018-09-29T04:46:42.749Z,1024.33
2018-09-29T04:47:08.887Z,1024.36
2018-09-29T04:47:35.016Z,1024.35
2018-09-29T04:48:01.169Z,1024.34
2018-09-29T04:48:27.298Z,1024.34
2018-09-29T04:48:53.434Z,1024.35
2018-09-29T04:49:19.586Z,1024.36
2018-09-29T04:49:45.713Z,1024.35
2018-09-29T04:50:11.865Z,1024.33
2018-09-29T04:50:38.020Z,1024.36
2018-09-29T04:51:04.177Z,1024.38
2018-09-29T04:51:30.308Z,1024.33
2018-09-29T04:51:56.442Z,1024.32
2018-09-29T04:52:22.573Z,1024.35
2018-09-29T04:52:48.704Z,1024.37
2018-09-29T04:53:14.861Z,1024.36
2018-09-29T04:53:40.989Z,1024.41
2018-09-29T04:54:07.148Z,1024.39
2018-09-29T04:54:33.305Z,1024.39
2018-09-29T04:54:59.433Z,1024.35
2018-09-29T04:55:25.558Z,1024.41
2018-09-29T04:55:51.696Z,1024.35
2018-09-29T04:56:17.829Z,1024.35
2018-09-29T04:56:43.966Z,1024.36
2018-09-29T04:57:10.121Z,1024.41
2018-09-29T04:57:36.259Z,1024.38
2018-09-29T04:58:02.419Z,1024.34
2018-09-29T04:58:28.549Z,1024.35
2018-09-29T04:58:54.697Z,1024.32
2018-09-29T04:59:20.868Z,1024.33
2018-09-29T04:59:47.039Z,1024.31
2018-09-29T05:00:13.169Z,1024.34
2018-09-29T05:00:39.327Z,1024.32
2018-09-29T05:01:05.466Z,1024.34
2018-09-29T05:01:31.598Z,1024.34
2018-09-29T05:01:57.725Z,1024.32
2018-09-29T05:02:23.868Z,1024.33
2018-09-29T05:02:49.997Z,1024.34
2018-09-29T05:03:16.146Z,1024.33
2018-09-29T05:03:42.277Z,1024.38
2018-09-29T05:04:08.439Z,1024.37
2018-09-29T05:04:34.567Z,1024.35
2018-09-29T05:05:00.727Z,1024.38
2018-09-29T05:05:26.860Z,1024.35
2018-09-29T05:05:52.989Z,1024.34
2018-09-29T05:06:19.127Z,1024.34
2018-09-29T05:06:45.281Z,1024.38
2018-09-29T05:07:11.421Z,1024.33
2018-09-29T05:07:37.551Z,1024.33
2018-09-29T05:08:03.680Z,1024.34
2018-09-29T05:08:29.811Z,1024.31
2018-09-29T05:08:55.946Z,1024.36
2018-09-29T05:09:22.079Z,1024.36
2018-09-29T05:09:48.255Z,1024.37
2018-09-29T05:10:14.382Z,1024.39
2018-09-29T05:10:40.509Z,1024.35
2018-09-29T05:11:06.663Z,1024.32
2018-09-29T05:11:32.800Z,1024.35
2018-09-29T05:11:58.952Z,1024.31
2018-09-29T05:12:25.077Z,1024.28
2018-09-29T05:12:51.205Z,1024.3
2018-09-29T05:13:17.369Z,1024.3
2018-09-29T05:13:43.499Z,1024.29
2018-09-29T05:14:09.633Z,1024.28
2018-09-29T05:14:35.758Z,1024.28
2018-09-29T05:15:01.921Z,1024.29
2018-09-29T05:15:28.079Z,1024.29
2018-09-29T05:15:54.210Z,1024.32
2018-09-29T05:16:20.348Z,1024.31
2018-09-29T05:16:46.480Z,1024.31
2018-09-29T05:17:12.668Z,1024.3